createdAt,value
2016-11-25T00:00:25.117Z,4.6
2016-11-25T00:01:26.639Z,4.56
2016-11-25T00:02:28.156Z,4.56
2016-11-25T00:03:29.632Z,4.6
2016-11-25T00:04:31.133Z,4.56
2016-11-25T00:05:32.597Z,4.6
2016-11-25T00:06:34.044Z,4.6
2016-11-25T00:07:35.516Z,4.56
2016-11-25T00:08:36.990Z,4.56
2016-11-25T00:09:38.466Z,4.56
2016-11-25T00:10:39.935Z,4.51
2016-11-25T00:11:41.404Z,4.47
2016-11-25T00:12:42.866Z,4.47
2016-11-25T00:13:44.356Z,4.47
2016-11-25T00:14:45.824Z,4.51
2016-11-25T00:15:47.325Z,4.51
2016-11-25T00:16:48.807Z,4.47
2016-11-25T00:17:50.271Z,4.43
2016-11-25T00:18:51.742Z,4.43
2016-11-25T00:19:53.209Z,4.39
2016-11-25T00:20:54.675Z,4.43
2016-11-25T00:21:56.170Z,4.39
2016-11-25T00:22:57.682Z,4.39
2016-11-25T00:23:59.172Z,4.43
2016-11-25T00:25:00.637Z,4.43
2016-11-25T00:26:02.099Z,4.43
2016-11-25T00:27:03.615Z,4.43
2016-11-25T00:28:05.077Z,4.43
2016-11-25T00:29:06.551Z,4.43
2016-11-25T00:30:08.017Z,4.39
2016-11-25T00:31:09.485Z,4.39
2016-11-25T00:32:10.981Z,4.35
2016-11-25T00:33:12.452Z,4.39
2016-11-25T00:34:13.934Z,4.31
2016-11-25T00:35:15.399Z,4.31
2016-11-25T00:36:16.862Z,4.27
2016-11-25T00:37:18.333Z,4.31
2016-11-25T00:38:19.801Z,4.27
2016-11-25T00:39:21.275Z,4.31
2016-11-25T00:40:22.787Z,4.31
2016-11-25T00:41:24.252Z,4.31
2016-11-25T00:42:25.717Z,4.31
2016-11-25T00:43:27.252Z,4.31
2016-11-25T00:44:28.753Z,4.27
2016-11-25T00:45:30.227Z,4.27
2016-11-25T00:46:31.697Z,4.27
2016-11-25T00:47:33.211Z,4.27
2016-11-25T00:48:34.727Z,4.22
2016-11-25T00:49:36.199Z,4.22
2016-11-25T00:50:37.669Z,4.22
2016-11-25T00:51:39.161Z,4.27
2016-11-25T00:52:40.629Z,4.27
2016-11-25T00:53:42.153Z,4.27
2016-11-25T00:54:43.643Z,4.27
2016-11-25T00:55:45.111Z,4.27
2016-11-25T00:56:46.577Z,4.22
2016-11-25T00:57:48.047Z,4.22
2016-11-25T00:58:49.515Z,4.18
2016-11-25T00:59:51.058Z,4.18
2016-11-25T01:00:52.521Z,4.18
2016-11-25T01:01:54.001Z,4.18
2016-11-25T01:02:55.469Z,4.22
2016-11-25T01:03:56.979Z,4.18
2016-11-25T01:04:58.495Z,4.18
2016-11-25T01:06:00.016Z,4.18
2016-11-25T01:07:01.509Z,4.22
2016-11-25T01:08:02.979Z,4.18
2016-11-25T01:09:04.461Z,4.18
2016-11-25T01:10:05.967Z,4.14
2016-11-25T01:11:07.428Z,4.14
2016-11-25T01:12:08.896Z,4.14
2016-11-25T01:13:10.406Z,4.14
2016-11-25T01:14:11.869Z,4.14
2016-11-25T01:15:13.362Z,4.14
2016-11-25T01:16:14.829Z,4.14
2016-11-25T01:17:16.302Z,4.1
2016-11-25T01:18:17.764Z,4.06
2016-11-25T01:19:19.283Z,4.06
2016-11-25T01:20:20.789Z,4.06
2016-11-25T01:21:22.265Z,4.06
2016-11-25T01:22:23.731Z,4.06
2016-11-25T01:23:25.198Z,4.06
2016-11-25T01:24:26.673Z,4.06
2016-11-25T01:25:28.203Z,4.02
2016-11-25T01:26:29.683Z,4.02
2016-11-25T01:27:31.144Z,4.06
2016-11-25T01:28:32.609Z,4.02
2016-11-25T01:29:34.076Z,4.02
2016-11-25T01:30:35.572Z,4.02
2016-11-25T01:31:37.064Z,4.02
2016-11-25T01:32:38.556Z,4.02
2016-11-25T01:33:40.067Z,4.02
2016-11-25T01:34:41.554Z,4.02
2016-11-25T01:35:43.045Z,4.02
2016-11-25T01:36:44.512Z,4.06
2016-11-25T01:37:46.033Z,4.06
2016-11-25T01:38:47.520Z,4.06
2016-11-25T01:39:48.984Z,4.06
2016-11-25T01:40:50.520Z,4.02
2016-11-25T01:41:52.034Z,3.98
2016-11-25T01:42:53.494Z,3.98
2016-11-25T01:43:54.957Z,4.02
2016-11-25T01:44:56.437Z,3.98
2016-11-25T01:45:57.911Z,3.98
2016-11-25T01:46:59.380Z,3.98
2016-11-25T01:48:00.858Z,3.98
2016-11-25T01:49:02.329Z,3.93
2016-11-25T01:50:03.847Z,3.89
2016-11-25T01:51:05.318Z,3.93
2016-11-25T01:52:06.820Z,3.93
2016-11-25T01:53:08.286Z,3.98
2016-11-25T01:54:09.751Z,3.93
2016-11-25T01:55:11.252Z,3.98
2016-11-25T01:56:12.739Z,3.93
2016-11-25T01:57:14.211Z,3.85
2016-11-25T01:58:15.702Z,3.85
2016-11-25T01:59:17.175Z,3.85
2016-11-25T02:00:18.644Z,3.85
2016-11-25T02:01:20.132Z,3.89
2016-11-25T02:02:21.603Z,3.89
2016-11-25T02:03:23.084Z,3.89
2016-11-25T02:04:24.550Z,3.89
2016-11-25T02:05:26.058Z,3.93
2016-11-25T02:06:27.545Z,3.93
2016-11-25T02:07:29.016Z,3.89
2016-11-25T02:08:30.517Z,3.89
2016-11-25T02:09:32.004Z,3.89
2016-11-25T02:10:33.474Z,3.85
2016-11-25T02:11:35.009Z,3.85
2016-11-25T02:12:36.520Z,3.85
2016-11-25T02:13:38.015Z,3.89
2016-11-25T02:14:39.486Z,3.85
2016-11-25T02:15:40.961Z,3.85
2016-11-25T02:16:42.433Z,3.85
2016-11-25T02:17:43.930Z,3.85
2016-11-25T02:18:45.407Z,3.89
2016-11-25T02:19:46.877Z,3.89
2016-11-25T02:20:48.344Z,3.89
2016-11-25T02:21:49.853Z,3.85
2016-11-25T02:22:51.316Z,3.81
2016-11-25T02:23:52.787Z,3.85
2016-11-25T02:24:54.252Z,3.81
2016-11-25T02:25:55.765Z,3.85
2016-11-25T02:26:57.269Z,3.81
2016-11-25T02:27:58.732Z,3.81
2016-11-25T02:29:00.204Z,3.77
2016-11-25T02:30:01.743Z,3.77
2016-11-25T02:31:03.209Z,3.81
2016-11-25T02:32:04.686Z,3.81
2016-11-25T02:33:06.154Z,3.81
2016-11-25T02:34:07.670Z,3.85
2016-11-25T02:35:09.142Z,3.77
2016-11-25T02:36:10.641Z,3.77
2016-11-25T02:37:12.171Z,3.77
2016-11-25T02:38:13.634Z,3.72
2016-11-25T02:39:15.107Z,3.77
2016-11-25T02:40:16.628Z,3.77
2016-11-25T02:41:18.098Z,3.81
2016-11-25T02:42:19.624Z,3.77
2016-11-25T02:43:21.099Z,3.72
2016-11-25T02:44:22.565Z,3.72
2016-11-25T02:45:24.038Z,3.72
2016-11-25T02:46:25.550Z,3.72
2016-11-25T02:47:27.033Z,3.72
2016-11-25T02:48:28.503Z,3.81
2016-11-25T02:49:30.018Z,3.81
2016-11-25T02:50:31.484Z,3.81
2016-11-25T02:51:32.954Z,3.81
2016-11-25T02:52:34.446Z,3.81
2016-11-25T02:53:35.915Z,3.77
2016-11-25T02:54:37.387Z,3.77
2016-11-25T02:55:38.850Z,3.77
2016-11-25T02:56:40.352Z,3.72
2016-11-25T02:57:41.833Z,3.72
2016-11-25T02:58:43.299Z,3.72
2016-11-25T02:59:44.771Z,3.77
2016-11-25T03:00:46.238Z,3.77
2016-11-25T03:01:47.698Z,3.77
2016-11-25T03:02:49.217Z,3.77
2016-11-25T03:03:50.725Z,3.77
2016-11-25T03:04:52.190Z,3.72
2016-11-25T03:05:53.653Z,3.72
2016-11-25T03:06:55.174Z,3.72
2016-11-25T03:07:56.685Z,3.77
2016-11-25T03:08:58.146Z,3.77
2016-11-25T03:09:59.610Z,3.72
2016-11-25T03:11:01.104Z,3.77
2016-11-25T03:12:02.574Z,3.77
2016-11-25T03:13:04.045Z,3.72
2016-11-25T03:14:05.568Z,3.72
2016-11-25T03:15:07.044Z,3.72
2016-11-25T03:16:08.507Z,3.77
2016-11-25T03:17:09.995Z,3.77
2016-11-25T03:18:11.526Z,3.77
2016-11-25T03:19:13.018Z,3.72
2016-11-25T03:20:14.480Z,3.77
2016-11-25T03:21:15.950Z,3.77
2016-11-25T03:22:17.420Z,3.72
2016-11-25T03:23:18.935Z,3.72
2016-11-25T03:24:20.469Z,3.72
2016-11-25T03:25:21.938Z,3.64
2016-11-25T03:26:23.438Z,3.68
2016-11-25T03:27:24.903Z,3.72
2016-11-25T03:28:26.443Z,3.72
2016-11-25T03:29:27.906Z,3.72
2016-11-25T03:30:29.377Z,3.72
2016-11-25T03:31:30.887Z,3.68
2016-11-25T03:32:32.367Z,3.68
2016-11-25T03:33:33.834Z,3.68
2016-11-25T03:34:35.327Z,3.68
2016-11-25T03:35:36.795Z,3.68
2016-11-25T03:36:38.261Z,3.72
2016-11-25T03:37:39.730Z,3.72
2016-11-25T03:38:41.236Z,3.72
2016-11-25T03:39:42.755Z,3.72
2016-11-25T03:40:44.249Z,3.68
2016-11-25T03:41:45.767Z,3.72
2016-11-25T03:42:47.231Z,3.68
2016-11-25T03:43:48.713Z,3.72
2016-11-25T03:44:50.208Z,3.72
2016-11-25T03:45:51.666Z,3.68
2016-11-25T03:46:53.132Z,3.68
2016-11-25T03:47:54.628Z,3.64
2016-11-25T03:48:56.097Z,3.64
2016-11-25T03:49:57.569Z,3.64
2016-11-25T03:50:59.039Z,3.64
2016-11-25T03:52:00.510Z,3.64
2016-11-25T03:53:02.023Z,3.64
2016-11-25T03:54:03.488Z,3.6
2016-11-25T03:55:04.988Z,3.64
2016-11-25T03:56:06.479Z,3.64
2016-11-25T03:57:07.929Z,3.6
2016-11-25T03:58:09.377Z,3.6
2016-11-25T03:59:10.841Z,3.6
2016-11-25T04:00:12.292Z,3.6
2016-11-25T04:01:13.754Z,3.56
2016-11-25T04:02:15.268Z,3.6
2016-11-25T04:03:16.740Z,3.64
2016-11-25T04:04:18.235Z,3.68
2016-11-25T04:05:19.699Z,3.68
2016-11-25T04:06:21.182Z,3.64
2016-11-25T04:07:22.649Z,3.64
2016-11-25T04:08:24.120Z,3.64
2016-11-25T04:09:25.620Z,3.68
2016-11-25T04:10:27.127Z,3.64
2016-11-25T04:11:28.580Z,3.6
2016-11-25T04:12:30.075Z,3.64
2016-11-25T04:13:31.543Z,3.64
2016-11-25T04:14:33.087Z,3.64
2016-11-25T04:15:34.555Z,3.68
2016-11-25T04:16:36.041Z,3.64
2016-11-25T04:17:37.495Z,3.6
2016-11-25T04:18:38.942Z,3.6
2016-11-25T04:19:40.442Z,3.6
2016-11-25T04:20:41.940Z,3.64
2016-11-25T04:21:43.406Z,3.64
2016-11-25T04:22:44.934Z,3.68
2016-11-25T04:23:46.429Z,3.68
2016-11-25T04:24:47.920Z,3.72
2016-11-25T04:25:49.390Z,3.72
2016-11-25T04:26:50.897Z,3.72
2016-11-25T04:27:52.366Z,3.72
2016-11-25T04:28:53.843Z,3.68
2016-11-25T04:29:55.332Z,3.68
2016-11-25T04:30:56.805Z,3.68
2016-11-25T04:31:58.276Z,3.68
2016-11-25T04:32:59.781Z,3.64
2016-11-25T04:34:01.273Z,3.68
2016-11-25T04:35:02.765Z,3.68
2016-11-25T04:36:04.240Z,3.68
2016-11-25T04:37:05.710Z,3.68
2016-11-25T04:38:07.215Z,3.64
2016-11-25T04:39:08.684Z,3.68
2016-11-25T04:40:10.214Z,3.68
2016-11-25T04:41:11.677Z,3.68
2016-11-25T04:42:13.188Z,3.68
2016-11-25T04:43:14.656Z,3.72
2016-11-25T04:44:16.214Z,3.72
2016-11-25T04:45:17.721Z,3.72
2016-11-25T04:46:19.232Z,3.68
2016-11-25T04:47:20.716Z,3.68
2016-11-25T04:48:22.182Z,3.68
2016-11-25T04:49:23.654Z,3.68
2016-11-25T04:50:25.180Z,3.68
2016-11-25T04:51:26.694Z,3.68
2016-11-25T04:52:28.159Z,3.64
2016-11-25T04:53:29.625Z,3.64
2016-11-25T04:54:31.163Z,3.68
2016-11-25T04:55:32.644Z,3.64
2016-11-25T04:56:34.115Z,3.64
2016-11-25T04:57:35.630Z,3.64
2016-11-25T04:58:37.148Z,3.68
2016-11-25T04:59:38.619Z,3.64
2016-11-25T05:00:40.107Z,3.56
2016-11-25T05:01:41.560Z,3.6
2016-11-25T05:02:43.015Z,3.6
2016-11-25T05:03:44.463Z,3.6
2016-11-25T05:04:45.914Z,3.6
2016-11-25T05:05:47.418Z,3.6
2016-11-25T05:06:48.859Z,3.6
2016-11-25T05:07:50.318Z,3.6
2016-11-25T05:08:51.777Z,3.6
2016-11-25T05:09:53.258Z,3.6
2016-11-25T05:10:54.805Z,3.6
2016-11-25T05:11:56.318Z,3.56
2016-11-25T05:12:57.799Z,3.56
2016-11-25T05:13:59.292Z,3.56
2016-11-25T05:15:00.754Z,3.56
2016-11-25T05:16:02.245Z,3.6
2016-11-25T05:17:03.755Z,3.56
2016-11-25T05:18:05.233Z,3.56
2016-11-25T05:19:06.704Z,3.56
2016-11-25T05:20:08.183Z,3.51
2016-11-25T05:21:09.682Z,3.47
2016-11-25T05:22:11.176Z,3.47
2016-11-25T05:23:12.640Z,3.47
2016-11-25T05:24:14.111Z,3.51
2016-11-25T05:25:15.579Z,3.56
2016-11-25T05:26:17.061Z,3.51
2016-11-25T05:27:18.528Z,3.51
2016-11-25T05:28:20.046Z,3.51
2016-11-25T05:29:21.521Z,3.47
2016-11-25T05:30:22.991Z,3.51
2016-11-25T05:31:24.479Z,3.51
2016-11-25T05:32:25.983Z,3.47
2016-11-25T05:33:27.448Z,3.47
2016-11-25T05:34:28.911Z,3.56
2016-11-25T05:35:30.374Z,3.56
2016-11-25T05:36:31.826Z,3.6
2016-11-25T05:37:33.276Z,3.6
2016-11-25T05:38:34.771Z,3.56
2016-11-25T05:39:36.238Z,3.56
2016-11-25T05:40:37.706Z,3.56
2016-11-25T05:41:39.199Z,3.56
2016-11-25T05:42:40.661Z,3.56
2016-11-25T05:43:42.124Z,3.51
2016-11-25T05:44:43.611Z,3.56
2016-11-25T05:45:45.081Z,3.56
2016-11-25T05:46:46.560Z,3.51
2016-11-25T05:47:48.042Z,3.51
2016-11-25T05:48:49.590Z,3.56
2016-11-25T05:49:51.057Z,3.51
2016-11-25T05:50:52.553Z,3.51
2016-11-25T05:51:54.034Z,3.56
2016-11-25T05:52:55.500Z,3.56
2016-11-25T05:53:56.951Z,3.6
2016-11-25T05:54:58.414Z,3.56
2016-11-25T05:55:59.918Z,3.56
2016-11-25T05:57:01.388Z,3.6
2016-11-25T05:58:02.847Z,3.6
2016-11-25T05:59:04.296Z,3.6
2016-11-25T06:00:05.817Z,3.56
2016-11-25T06:01:07.264Z,3.6
2016-11-25T06:02:08.736Z,3.6
2016-11-25T06:03:10.253Z,3.56
2016-11-25T06:04:11.717Z,3.56
2016-11-25T06:05:13.182Z,3.47
2016-11-25T06:06:14.675Z,3.47
2016-11-25T06:07:16.145Z,3.51
2016-11-25T06:08:17.612Z,3.47
2016-11-25T06:09:19.079Z,3.43
2016-11-25T06:10:20.551Z,3.43
2016-11-25T06:11:22.065Z,3.47
2016-11-25T06:12:23.545Z,3.47
2016-11-25T06:13:25.007Z,3.51
2016-11-25T06:14:26.467Z,3.51
2016-11-25T06:15:27.937Z,3.43
2016-11-25T06:16:29.474Z,3.39
2016-11-25T06:17:30.958Z,3.39
2016-11-25T06:18:32.425Z,3.39
2016-11-25T06:19:33.901Z,3.35
2016-11-25T06:20:35.403Z,3.39
2016-11-25T06:21:36.867Z,3.43
2016-11-25T06:22:38.353Z,3.43
2016-11-25T06:23:39.824Z,3.43
2016-11-25T06:24:41.335Z,3.47
2016-11-25T06:25:42.852Z,3.47
2016-11-25T06:26:44.342Z,3.43
2016-11-25T06:27:45.830Z,3.43
2016-11-25T06:28:47.295Z,3.39
2016-11-25T06:29:48.757Z,3.39
2016-11-25T06:30:50.220Z,3.39
2016-11-25T06:31:51.708Z,3.39
2016-11-25T06:32:53.195Z,3.43
2016-11-25T06:33:54.709Z,3.39
2016-11-25T06:34:56.172Z,3.43
2016-11-25T06:35:57.651Z,3.43
2016-11-25T06:36:59.141Z,3.43
2016-11-25T06:38:00.682Z,3.39
2016-11-25T06:39:02.149Z,3.35
2016-11-25T06:40:03.621Z,3.35
2016-11-25T06:41:05.089Z,3.35
2016-11-25T06:42:06.598Z,3.35
2016-11-25T06:43:08.089Z,3.39
2016-11-25T06:44:09.587Z,3.39
2016-11-25T06:45:11.093Z,3.39
2016-11-25T06:46:12.595Z,3.39
2016-11-25T06:47:14.058Z,3.39
2016-11-25T06:48:15.603Z,3.39
2016-11-25T06:49:17.064Z,3.39
2016-11-25T06:50:18.560Z,3.39
2016-11-25T06:51:20.027Z,3.43
2016-11-25T06:52:21.497Z,3.39
2016-11-25T06:53:23.000Z,3.39
2016-11-25T06:54:24.534Z,3.39
2016-11-25T06:55:26.045Z,3.39
2016-11-25T06:56:27.552Z,3.39
2016-11-25T06:57:29.016Z,3.39
2016-11-25T06:58:30.534Z,3.35
2016-11-25T06:59:32.009Z,3.35
2016-11-25T07:00:33.479Z,3.43
2016-11-25T07:01:34.963Z,3.43
2016-11-25T07:02:36.480Z,3.47
2016-11-25T07:03:37.951Z,3.43
2016-11-25T07:04:39.446Z,3.39
2016-11-25T07:05:40.949Z,3.43
2016-11-25T07:06:42.421Z,3.39
2016-11-25T07:07:43.892Z,3.39
2016-11-25T07:08:45.437Z,3.39
2016-11-25T07:09:46.938Z,3.35
2016-11-25T07:10:48.419Z,3.35
2016-11-25T07:11:49.888Z,3.35
2016-11-25T07:12:51.349Z,3.35
2016-11-25T07:13:52.809Z,3.3
2016-11-25T07:14:54.290Z,3.3
2016-11-25T07:15:55.735Z,3.3
2016-11-25T07:16:57.185Z,3.3
2016-11-25T07:17:58.635Z,3.3
2016-11-25T07:19:00.092Z,3.3
2016-11-25T07:20:01.560Z,3.26
2016-11-25T07:21:03.023Z,3.3
2016-11-25T07:22:04.506Z,3.3
2016-11-25T07:23:06.008Z,3.35
2016-11-25T07:24:07.509Z,3.3
2016-11-25T07:25:08.970Z,3.3
2016-11-25T07:26:10.496Z,3.3
2016-11-25T07:27:11.944Z,3.3
2016-11-25T07:28:13.420Z,3.3
2016-11-25T07:29:14.902Z,3.22
2016-11-25T07:30:16.361Z,3.18
2016-11-25T07:31:17.847Z,3.18
2016-11-25T07:32:19.354Z,3.22
2016-11-25T07:33:20.819Z,3.22
2016-11-25T07:34:22.347Z,3.22
2016-11-25T07:35:23.823Z,3.18
2016-11-25T07:36:25.290Z,3.13
2016-11-25T07:37:26.756Z,3.18
2016-11-25T07:38:28.224Z,3.22
2016-11-25T07:39:29.710Z,3.18
2016-11-25T07:40:31.174Z,3.18
2016-11-25T07:41:32.675Z,3.18
2016-11-25T07:42:34.174Z,3.09
2016-11-25T07:43:35.664Z,3.13
2016-11-25T07:44:37.141Z,3.13
2016-11-25T07:45:38.645Z,3.13
2016-11-25T07:46:40.122Z,3.09
2016-11-25T07:47:41.585Z,3.09
2016-11-25T07:48:43.054Z,3.09
2016-11-25T07:49:44.538Z,3.09
2016-11-25T07:50:46.010Z,3.05
2016-11-25T07:51:47.468Z,3.05
2016-11-25T07:52:48.952Z,3.09
2016-11-25T07:53:50.468Z,3.09
2016-11-25T07:54:51.960Z,3.13
2016-11-25T07:55:53.420Z,3.13
2016-11-25T07:56:54.882Z,3.18
2016-11-25T07:57:56.351Z,3.13
2016-11-25T07:58:57.827Z,3.09
2016-11-25T07:59:59.361Z,3.09
2016-11-25T08:01:00.824Z,3.13
2016-11-25T08:02:02.318Z,3.13
2016-11-25T08:03:03.798Z,3.13
2016-11-25T08:04:05.352Z,3.13
2016-11-25T08:05:06.840Z,3.13
2016-11-25T08:06:08.302Z,3.13
2016-11-25T08:07:09.780Z,3.13
2016-11-25T08:08:11.250Z,3.09
2016-11-25T08:09:12.714Z,3.05
2016-11-25T08:10:14.259Z,3.09
2016-11-25T08:11:15.740Z,3.05
2016-11-25T08:12:17.240Z,3.05
2016-11-25T08:13:18.712Z,3.01
2016-11-25T08:14:20.231Z,2.96
2016-11-25T08:15:21.726Z,2.92
2016-11-25T08:16:23.192Z,2.96
2016-11-25T08:17:24.664Z,3.01
2016-11-25T08:18:26.181Z,3.05
2016-11-25T08:19:27.647Z,3.05
2016-11-25T08:20:29.148Z,3.05
2016-11-25T08:21:30.610Z,3.01
2016-11-25T08:22:32.086Z,3.05
2016-11-25T08:23:33.550Z,3.01
2016-11-25T08:24:35.021Z,2.96
2016-11-25T08:25:36.492Z,2.88
2016-11-25T08:26:37.962Z,2.84
2016-11-25T08:27:39.430Z,2.88
2016-11-25T08:28:40.948Z,2.84
2016-11-25T08:29:42.413Z,2.84
2016-11-25T08:30:43.934Z,2.88
2016-11-25T08:31:45.430Z,2.88
2016-11-25T08:32:46.930Z,2.92
2016-11-25T08:33:48.395Z,2.92
2016-11-25T08:34:49.863Z,2.92
2016-11-25T08:35:51.332Z,2.96
2016-11-25T08:36:52.799Z,2.96
2016-11-25T08:37:54.272Z,2.92
2016-11-25T08:38:55.740Z,2.84
2016-11-25T08:39:57.208Z,2.79
2016-11-25T08:40:58.679Z,2.84
2016-11-25T08:42:00.193Z,2.79
2016-11-25T08:43:01.657Z,2.75
2016-11-25T08:44:03.124Z,2.71
2016-11-25T08:45:04.591Z,2.66
2016-11-25T08:46:06.131Z,2.62
2016-11-25T08:47:07.646Z,2.71
2016-11-25T08:48:09.115Z,2.79
2016-11-25T08:49:10.615Z,2.79
2016-11-25T08:50:12.082Z,2.84
2016-11-25T08:51:13.570Z,2.79
2016-11-25T08:52:15.039Z,2.79
2016-11-25T08:53:16.555Z,2.84
2016-11-25T08:54:18.027Z,2.84
2016-11-25T08:55:19.492Z,2.79
2016-11-25T08:56:20.993Z,2.79
2016-11-25T08:57:22.493Z,2.75
2016-11-25T08:58:23.988Z,2.79
2016-11-25T08:59:25.469Z,2.75
2016-11-25T09:00:26.932Z,2.71
2016-11-25T09:01:28.449Z,2.71
2016-11-25T09:02:29.908Z,2.71
2016-11-25T09:03:31.406Z,2.71
2016-11-25T09:04:32.876Z,2.71
2016-11-25T09:05:34.376Z,2.79
2016-11-25T09:06:35.881Z,2.88
2016-11-25T09:07:37.346Z,2.92
2016-11-25T09:08:38.902Z,2.88
2016-11-25T09:09:40.366Z,2.96
2016-11-25T09:10:41.836Z,3.01
2016-11-25T09:11:43.313Z,3.09
2016-11-25T09:12:44.778Z,3.09
2016-11-25T09:13:46.268Z,3.01
2016-11-25T09:14:47.734Z,3.01
2016-11-25T09:15:49.199Z,2.92
2016-11-25T09:16:50.675Z,2.92
2016-11-25T09:17:52.192Z,2.92
2016-11-25T09:18:53.688Z,2.92
2016-11-25T09:19:55.152Z,2.88
2016-11-25T09:20:56.622Z,2.88
2016-11-25T09:21:58.157Z,2.79
2016-11-25T09:22:59.628Z,2.79
2016-11-25T09:24:01.095Z,2.84
2016-11-25T09:25:02.557Z,2.88
2016-11-25T09:26:04.069Z,2.92
2016-11-25T09:27:05.565Z,3.01
2016-11-25T09:28:07.028Z,3.05
2016-11-25T09:29:08.514Z,3.09
2016-11-25T09:30:10.016Z,3.09
2016-11-25T09:31:11.478Z,3.09
2016-11-25T09:32:12.947Z,3.09
2016-11-25T09:33:14.413Z,3.13
2016-11-25T09:34:15.892Z,3.18
2016-11-25T09:35:17.399Z,3.13
2016-11-25T09:36:18.888Z,3.09
2016-11-25T09:37:20.357Z,3.22
2016-11-25T09:38:21.855Z,3.26
2016-11-25T09:39:23.321Z,3.26
2016-11-25T09:40:24.824Z,3.3
2016-11-25T09:41:26.292Z,3.26
2016-11-25T09:42:27.794Z,3.22
2016-11-25T09:43:29.310Z,3.22
2016-11-25T09:44:30.773Z,3.18
2016-11-25T09:45:32.247Z,3.13
2016-11-25T09:46:33.794Z,3.22
2016-11-25T09:47:35.280Z,3.26
2016-11-25T09:48:36.750Z,3.22
2016-11-25T09:49:38.219Z,3.26
2016-11-25T09:50:39.707Z,3.39
2016-11-25T09:51:41.211Z,3.6
2016-11-25T09:52:42.697Z,3.72
2016-11-25T09:53:44.171Z,3.89
2016-11-25T09:54:45.710Z,3.93
2016-11-25T09:55:47.175Z,3.81
2016-11-25T09:56:48.670Z,3.72
2016-11-25T09:57:50.167Z,3.64
2016-11-25T09:58:51.628Z,3.51
2016-11-25T09:59:53.096Z,3.47
2016-11-25T10:00:54.567Z,3.43
2016-11-25T10:01:56.023Z,3.3
2016-11-25T10:02:57.563Z,3.26
2016-11-25T10:03:59.027Z,3.26
2016-11-25T10:05:00.499Z,3.26
2016-11-25T10:06:01.961Z,3.22
2016-11-25T10:07:03.496Z,3.18
2016-11-25T10:08:04.991Z,3.26
2016-11-25T10:09:06.469Z,3.22
2016-11-25T10:10:07.986Z,3.26
2016-11-25T10:11:09.458Z,3.18
2016-11-25T10:12:10.922Z,3.18
2016-11-25T10:13:12.429Z,3.18
2016-11-25T10:14:13.906Z,3.22
2016-11-25T10:15:15.373Z,3.26
2016-11-25T10:16:16.840Z,3.22
2016-11-25T10:17:18.350Z,3.3
2016-11-25T10:18:19.897Z,3.39
2016-11-25T10:19:21.393Z,3.39
2016-11-25T10:20:22.857Z,3.39
2016-11-25T10:21:24.316Z,3.39
2016-11-25T10:22:25.781Z,3.47
2016-11-25T10:23:27.292Z,3.43
2016-11-25T10:24:28.810Z,3.43
2016-11-25T10:25:30.317Z,3.47
2016-11-25T10:26:31.788Z,3.47
2016-11-25T10:27:33.298Z,3.51
2016-11-25T10:28:34.829Z,3.51
2016-11-25T10:29:36.300Z,3.56
2016-11-25T10:30:37.769Z,3.56
2016-11-25T10:31:39.265Z,3.56
2016-11-25T10:32:40.734Z,3.56
2016-11-25T10:33:42.259Z,3.68
2016-11-25T10:34:43.724Z,3.64
2016-11-25T10:35:45.189Z,3.47
2016-11-25T10:36:46.655Z,3.43
2016-11-25T10:37:48.120Z,3.43
2016-11-25T10:38:49.611Z,3.47
2016-11-25T10:39:51.054Z,3.6
2016-11-25T10:40:52.540Z,3.56
2016-11-25T10:41:53.987Z,3.6
2016-11-25T10:42:55.438Z,3.6
2016-11-25T10:43:56.931Z,3.6
2016-11-25T10:44:58.435Z,3.64
2016-11-25T10:45:59.953Z,3.64
2016-11-25T10:47:01.408Z,3.6
2016-11-25T10:48:02.870Z,3.56
2016-11-25T10:49:04.404Z,3.56
2016-11-25T10:50:05.904Z,3.56
2016-11-25T10:51:07.371Z,3.56
2016-11-25T10:52:08.878Z,3.64
2016-11-25T10:53:10.379Z,3.64
2016-11-25T10:54:11.858Z,3.6
2016-11-25T10:55:13.340Z,3.6
2016-11-25T10:56:14.813Z,3.56
2016-11-25T10:57:16.260Z,3.6
2016-11-25T10:58:17.764Z,3.56
2016-11-25T10:59:19.237Z,3.51
2016-11-25T11:00:20.703Z,3.56
2016-11-25T11:01:22.178Z,3.56
2016-11-25T11:02:23.672Z,3.6
2016-11-25T11:03:25.141Z,3.68
2016-11-25T11:04:26.635Z,3.64
2016-11-25T11:05:28.126Z,3.56
2016-11-25T11:06:29.603Z,3.6
2016-11-25T11:07:31.078Z,3.64
2016-11-25T11:08:32.594Z,3.72
2016-11-25T11:09:34.134Z,3.68
2016-11-25T11:10:35.627Z,3.72
2016-11-25T11:11:37.104Z,3.68
2016-11-25T11:12:38.564Z,3.68
2016-11-25T11:13:40.033Z,3.64
2016-11-25T11:14:41.510Z,3.56
2016-11-25T11:15:42.975Z,3.47
2016-11-25T11:16:44.529Z,3.43
2016-11-25T11:17:46.049Z,3.39
2016-11-25T11:18:47.526Z,3.35
2016-11-25T11:19:48.998Z,3.3
2016-11-25T11:20:50.440Z,3.3
2016-11-25T11:21:51.911Z,3.35
2016-11-25T11:22:53.415Z,3.35
2016-11-25T11:23:54.876Z,3.35
2016-11-25T11:24:56.366Z,3.35
2016-11-25T11:25:57.818Z,3.3
2016-11-25T11:26:59.271Z,3.3
2016-11-25T11:28:00.722Z,3.3
2016-11-25T11:29:02.175Z,3.3
2016-11-25T11:30:03.700Z,3.3
2016-11-25T11:31:05.176Z,3.26
2016-11-25T11:32:06.646Z,3.35
2016-11-25T11:33:08.181Z,3.3
2016-11-25T11:34:09.630Z,3.3
2016-11-25T11:35:11.112Z,3.3
2016-11-25T11:36:12.603Z,3.26
2016-11-25T11:37:14.049Z,3.3
2016-11-25T11:38:15.517Z,3.39
2016-11-25T11:39:17.009Z,3.51
2016-11-25T11:40:18.495Z,3.56
2016-11-25T11:41:19.955Z,3.56
2016-11-25T11:42:21.403Z,3.6
2016-11-25T11:43:22.874Z,3.56
2016-11-25T11:44:24.391Z,3.6
2016-11-25T11:45:25.880Z,3.6
2016-11-25T11:46:27.353Z,3.6
2016-11-25T11:47:28.807Z,3.6
2016-11-25T11:48:30.285Z,3.56
2016-11-25T11:49:31.748Z,3.56
2016-11-25T11:50:33.288Z,3.6
2016-11-25T11:51:34.747Z,3.64
2016-11-25T11:52:36.268Z,3.6
2016-11-25T11:53:37.789Z,3.56
2016-11-25T11:54:39.318Z,3.56
2016-11-25T11:55:40.784Z,3.56
2016-11-25T11:56:42.258Z,3.51
2016-11-25T11:57:43.731Z,3.56
2016-11-25T11:58:45.251Z,3.56
2016-11-25T11:59:46.751Z,3.6
2016-11-25T12:00:48.291Z,3.6
2016-11-25T12:01:49.764Z,3.6
2016-11-25T12:02:51.269Z,3.64
2016-11-25T12:03:52.775Z,3.72
2016-11-25T12:04:54.308Z,3.72
2016-11-25T12:05:55.852Z,3.72
2016-11-25T12:06:57.317Z,3.72
2016-11-25T12:07:58.835Z,3.77
2016-11-25T12:09:00.302Z,3.77
2016-11-25T12:10:01.768Z,3.77
2016-11-25T12:11:03.268Z,3.81
2016-11-25T12:12:04.741Z,3.93
2016-11-25T12:13:06.193Z,4.1
2016-11-25T12:14:07.662Z,4.14
2016-11-25T12:15:09.180Z,4.22
2016-11-25T12:16:10.684Z,4.22
2016-11-25T12:17:12.206Z,4.22
2016-11-25T12:18:13.672Z,4.18
2016-11-25T12:19:15.130Z,4.18
2016-11-25T12:20:16.599Z,4.18
2016-11-25T12:21:18.084Z,4.1
2016-11-25T12:22:19.549Z,4.14
2016-11-25T12:23:21.019Z,4.22
2016-11-25T12:24:22.535Z,4.35
2016-11-25T12:25:24.004Z,4.39
2016-11-25T12:26:25.549Z,4.43
2016-11-25T12:27:27.013Z,4.47
2016-11-25T12:28:28.479Z,4.39
2016-11-25T12:29:29.977Z,4.31
2016-11-25T12:30:31.448Z,4.22
2016-11-25T12:31:32.973Z,4.22
2016-11-25T12:32:34.423Z,4.1
2016-11-25T12:33:35.893Z,4.02
2016-11-25T12:34:37.354Z,3.98
2016-11-25T12:35:38.812Z,3.98
2016-11-25T12:36:40.309Z,4.02
2016-11-25T12:37:41.773Z,3.98
2016-11-25T12:38:43.239Z,3.89
2016-11-25T12:39:44.705Z,3.77
2016-11-25T12:40:46.173Z,3.85
2016-11-25T12:41:47.662Z,3.85
2016-11-25T12:42:49.204Z,3.81
2016-11-25T12:43:50.670Z,3.81
2016-11-25T12:44:52.143Z,3.85
2016-11-25T12:45:53.640Z,3.89
2016-11-25T12:46:55.184Z,3.89
2016-11-25T12:47:56.653Z,3.89
2016-11-25T12:48:58.120Z,3.85
2016-11-25T12:49:59.639Z,3.85
2016-11-25T12:51:01.102Z,3.81
2016-11-25T12:52:02.595Z,3.89
2016-11-25T12:53:04.125Z,3.85
2016-11-25T12:54:05.588Z,3.89
2016-11-25T12:55:07.101Z,3.93
2016-11-25T12:56:08.627Z,3.98
2016-11-25T12:57:10.117Z,3.98
2016-11-25T12:58:11.634Z,3.98
2016-11-25T12:59:13.095Z,4.02
2016-11-25T13:00:14.559Z,4.02
2016-11-25T13:01:16.019Z,4.02
2016-11-25T13:02:17.511Z,4.06
2016-11-25T13:03:19.032Z,4.06
2016-11-25T13:04:20.501Z,4.02
2016-11-25T13:05:22.013Z,4.02
2016-11-25T13:06:23.510Z,4.1
2016-11-25T13:07:25.023Z,4.14
2016-11-25T13:08:26.492Z,4.14
2016-11-25T13:09:27.993Z,4.22
2016-11-25T13:10:29.520Z,4.22
2016-11-25T13:11:31.003Z,4.27
2016-11-25T13:12:32.539Z,4.27
2016-11-25T13:13:34.074Z,4.27
2016-11-25T13:14:35.576Z,4.27
2016-11-25T13:15:37.082Z,4.22
2016-11-25T13:16:38.546Z,4.31
2016-11-25T13:17:40.087Z,4.31
2016-11-25T13:18:41.582Z,4.31
2016-11-25T13:19:43.075Z,4.27
2016-11-25T13:20:44.546Z,4.18
2016-11-25T13:21:46.005Z,4.14
2016-11-25T13:22:47.499Z,4.14
2016-11-25T13:23:48.979Z,4.1
2016-11-25T13:24:50.432Z,4.1
2016-11-25T13:25:51.919Z,4.22
2016-11-25T13:26:53.389Z,4.18
2016-11-25T13:27:54.859Z,4.27
2016-11-25T13:28:56.323Z,4.22
2016-11-25T13:29:57.865Z,4.22
2016-11-25T13:30:59.349Z,4.18
2016-11-25T13:32:00.868Z,4.14
2016-11-25T13:33:02.326Z,4.1
2016-11-25T13:34:03.846Z,4.06
2016-11-25T13:35:05.312Z,3.98
2016-11-25T13:36:06.834Z,3.89
2016-11-25T13:37:08.292Z,3.85
2016-11-25T13:38:09.842Z,3.85
2016-11-25T13:39:11.341Z,3.89
2016-11-25T13:40:12.840Z,3.85
2016-11-25T13:41:14.325Z,3.85